Observations for BINGHAMTON BROOME, NY (BGM)

KBGM 200653Z AUTO 15003KT 10SM CLR M02/M08 A3030 RMK AO2 SLP277 T10171083   
KBGM 200553Z AUTO 16003KT 10SM BKN065 M01/M08 A3031 RMK AO2 SLP281 T10061083 10017 21017 58001  
KBGM 200453Z AUTO 16003KT 10SM OVC065 M01/M08 A3031 RMK AO2 SLP282 T10061078 400441072  
KBGM 200353Z AUTO 16004KT 10SM CLR M01/M08 A3031 RMK AO2 SLP283 T10111078   
KBGM 200253Z 09003KT 10SM CLR M02/M08 A3031 RMK AO2 SLP285 T10171078 50002  
KBGM 200153Z 04004KT 10SM CLR 00/M07 A3031 RMK AO2 SLP285 T00001072 
KBGM 200053Z 01003KT 10SM CLR 01/M07 A3031 RMK AO2 SLP285 T00061072 
KBGM 192353Z 34003KT 10SM CLR 02/M08 A3031 RMK AO2 SLP283 T00171078 10044 20017 53001   
KBGM 192253Z 31004KT 10SM BKN085 02/M07 A3030 RMK AO2 SLP283 T00221072  
KBGM 192153Z 30006KT 10SM SCT047 BKN060 OVC085 03/M07 A3030 RMK AO2 SLP281 T00331072
KBGM 192053Z VRB05KT 10SM SCT048 BKN070 BKN080 04/M07 A3030 RMK AO2 SLP280 T00441072 56012  
KBGM 191953Z 32009G15KT 10SM OVC055 03/M09 A3031 RMK AO2 SLP284 T00331089   
KBGM 191853Z 30011G16KT 10SM BKN055 OVC070 03/M09 A3031 RMK AO2 SLP285 T00281094
KBGM 191753Z VRB06KT 10SM FEW055 03/M08 A3034 RMK AO2 SLP294 T00281083 10028 21050 58005
KBGM 191653Z 30007KT 10SM SCT036 SCT046 02/M07 A3035 RMK AO2 SLP296 T00221067   
KBGM 191553Z 32009KT 10SM FEW027 BKN085 01/M06 A3035 RMK AO2 SLP299 T00061061   
KBGM 191513Z 31009KT 10SM SCT025 BKN032 BKN090 00/M06 A3035 RMK AO2 T00001056
KBGM 191453Z 28007KT 10SM BKN028 OVC037 M01/M06 A3036 RMK AO2 SLP300 T10111061 53012
KBGM 191440Z 26007KT 10SM BKN029 OVC041 M01/M06 A3035 RMK AO2 T10111056
KBGM 191353Z 21006KT 10SM FEW044 SCT050 BKN090 M02/M06 A3034 RMK AO2 SLP296 T10221056   
KBGM 191253Z 25005KT 10SM FEW047 M04/M07 A3033 RMK AO2 SLP293 T10391067 
KBGM 191153Z 23003KT 10SM CLR M05/M07 A3032 RMK AO2 SLP290 T10501072 11050 21072 53013  
KBGM 191053Z 24003KT 10SM CLR M06/M08 A3030 RMK AO2 SLP283 T10561078
KBGM 190953Z 00000KT 10SM CLR M06/M08 A3029 RMK AO2 SLP281 T10611078
KBGM 190853Z AUTO 28004KT 10SM CLR M06/M07 A3028 RMK AO2 SLP275 T10561072 55003 
KBGM 190753Z AUTO 25004KT 10SM CLR M06/M07 A3028 RMK AO2 SLP273 T10561072   
KBGM 190653Z AUTO 24005KT 10SM CLR M05/M07 A3028 RMK AO2 SLP276 T10501067